.
WxDataArchive / Data Records for 2009-05-17
2009-05-16 May 2009 2009-05-18

Data Records for Sunday, 17 May 2009

Time	Temp	Chill	HIndex	Humid	Dewpt	 Wind 	HiWind	WindDir	Rain 	Barom 
-----	----	-----	------	-----	-----	------	------	-------	-----	----- 
00:00	47.6	47.6	47.6	62	35.2	0	1	270	0.00	30.202 
00:05	47.6	47.6	47.6	62	35.2	1	2	225	0.00	30.202 
00:10	47.6	47.6	47.6	61	34.8	0	2	248	0.00	30.202 
00:15	47.6	47.6	47.6	61	34.8	0	1	22	0.00	30.206 
00:20	47.4	47.4	47.4	61	34.6	0	3	315	0.00	30.206 
00:25	47.4	47.4	47.4	60	34.2	1	3	315	0.00	30.206 
00:30	47.3	47.3	47.3	61	34.5	0	2	270	0.00	30.215 
00:35	47.1	47.1	47.1	61	34.4	0	2	292	0.00	30.215 
00:40	47.1	47.1	47.1	60	33.9	0	2	292	0.00	30.215 
00:45	47.0	47.0	47.0	60	33.8	0	3	292	0.00	30.221 
00:50	47.0	47.0	47.0	60	33.8	0	4	225	0.00	30.221 
00:55	46.8	46.8	46.8	59	33.2	0	1	225	0.00	30.221 
01:00	46.7	46.7	46.7	59	33.1	0	1	0	0.00	30.226 
01:05	46.5	46.5	46.5	60	33.4	0	1	0	0.00	30.226 
01:10	46.4	46.4	46.4	61	33.7	0	1	0	0.00	30.226 
01:15	46.2	46.2	46.2	62	33.9	0	1	0	0.00	30.236 
01:20	46.1	46.1	46.1	61	33.4	0	1	0	0.00	30.236 
01:25	46.1	46.1	46.1	62	33.8	0	1	0	0.00	30.236 
01:30	46.0	46.0	46.0	62	33.7	0	1	0	0.00	30.240 
01:35	45.7	45.7	45.7	62	33.4	0	1	0	0.00	30.240 
01:40	45.7	45.7	45.7	62	33.4	0	0	---	0.00	30.240 
01:45	45.4	45.4	45.4	62	33.2	0	0	---	0.00	30.251 
01:50	45.2	45.2	45.2	63	33.4	0	0	---	0.00	30.251 
01:55	45.1	45.1	45.1	63	33.3	0	0	---	0.00	30.251 
02:00	44.9	44.9	44.9	64	33.5	0	1	0	0.00	30.251 
02:05	44.6	44.6	44.6	64	33.2	0	0	---	0.00	30.251 
02:10	44.5	44.5	44.5	65	33.5	0	0	---	0.00	30.251 
02:15	44.2	44.2	44.2	65	33.2	0	0	---	0.00	30.246 
02:20	44.1	44.1	44.1	66	33.5	0	0	---	0.00	30.246 
02:25	43.8	43.8	43.8	67	33.6	0	0	---	0.00	30.246 
02:30	43.6	43.6	43.6	68	33.7	0	0	---	0.00	30.241 
02:35	43.5	43.5	43.5	68	33.7	0	1	0	0.00	30.241 
02:40	43.5	43.5	43.5	67	33.3	0	1	0	0.00	30.241 
02:45	43.5	43.5	43.5	66	32.9	0	1	0	0.00	30.247 
02:50	43.5	43.5	43.5	66	32.9	0	1	0	0.00	30.247 
02:55	43.5	43.5	43.5	65	32.5	0	1	0	0.00	30.247 
03:00	43.3	43.3	43.3	65	32.3	0	1	0	0.00	30.255 
03:05	43.2	43.2	43.2	65	32.2	0	0	---	0.00	30.255 
03:10	43.1	43.1	43.1	66	32.5	0	1	0	0.00	30.255 
03:15	42.9	42.9	42.9	66	32.3	0	1	0	0.00	30.255 
03:20	42.8	42.8	42.8	66	32.2	0	0	---	0.00	30.255 
03:25	42.6	42.6	42.6	66	32.0	0	1	0	0.00	30.255 
03:30	42.5	42.5	42.5	67	32.3	0	0	---	0.00	30.260 
03:35	42.3	42.3	42.3	67	32.1	0	0	---	0.00	30.260 
03:40	42.1	42.1	42.1	68	32.3	0	0	---	0.00	30.260 
03:45	41.8	41.8	41.8	69	32.4	0	0	---	0.00	30.265 
03:50	41.6	41.6	41.6	69	32.2	0	0	---	0.00	30.265 
03:55	41.3	41.3	41.3	70	32.3	0	1	0	0.00	30.265 
04:00	41.2	41.2	41.2	70	32.2	0	1	0	0.00	30.262 
04:05	41.3	41.3	41.3	70	32.3	0	0	---	0.00	30.262 
04:10	41.2	41.2	41.2	70	32.2	0	0	---	0.00	30.262 
04:15	41.1	41.1	41.1	70	32.1	0	0	---	0.00	30.260 
04:20	40.9	40.9	40.9	70	31.9	0	0	---	0.00	30.260 
04:25	40.9	40.9	40.9	70	31.9	0	1	0	0.00	30.260 
04:30	40.9	40.9	40.9	69	31.5	0	0	---	0.00	30.260 
04:35	40.9	40.9	40.9	69	31.5	0	1	0	0.00	30.260 
04:40	40.9	40.9	40.9	67	30.8	0	1	0	0.00	30.260 
04:45	41.1	41.1	41.1	66	30.6	0	1	0	0.00	30.263 
04:50	41.3	41.3	41.3	63	29.7	0	1	0	0.00	30.263 
04:55	41.6	41.6	41.6	62	29.6	0	1	0	0.00	30.263 
05:00	41.8	41.8	41.8	60	28.9	0	1	0	0.00	30.268 
05:05	42.1	42.1	42.1	57	28.0	0	1	0	0.00	30.268 
05:10	42.5	42.5	42.5	55	27.5	0	1	0	0.00	30.268 
05:15	42.8	42.8	42.8	53	26.9	0	1	0	0.00	30.273 
05:20	43.1	43.1	43.1	51	26.2	0	1	0	0.00	30.273 
05:25	43.3	43.3	43.3	52	26.9	0	0	---	0.00	30.273 
05:30	43.2	43.2	43.2	51	26.3	0	1	0	0.00	30.273 
05:35	43.1	43.1	43.1	51	26.2	0	1	0	0.00	30.273 
05:40	43.1	43.1	43.1	52	26.7	0	1	0	0.00	30.273 
05:45	43.1	43.1	43.1	52	26.7	0	0	---	0.00	30.274 
05:50	43.1	43.1	43.1	51	26.2	0	1	0	0.00	30.274 
05:55	43.2	43.2	43.2	50	25.8	0	1	0	0.00	30.274 
06:00	43.3	43.3	43.3	50	25.9	0	1	0	0.00	30.281 
06:05	43.6	43.6	43.6	50	26.2	0	1	0	0.00	30.281 
06:10	43.8	43.8	43.8	51	26.9	0	3	270	0.00	30.281 
06:15	43.6	43.6	43.6	51	26.7	0	1	270	0.00	30.291 
06:20	43.5	43.5	43.5	51	26.6	0	2	270	0.00	30.291 
06:25	43.3	43.3	43.3	52	26.9	0	1	270	0.00	30.291 
06:30	43.2	43.2	43.2	53	27.2	0	1	270	0.00	30.293 
06:35	43.1	43.1	43.1	53	27.1	0	1	270	0.00	30.293 
06:40	42.9	42.9	42.9	54	27.4	0	1	270	0.00	30.293 
06:45	43.1	43.1	43.1	54	27.6	0	1	270	0.00	30.300 
06:50	43.1	43.1	43.1	54	27.6	0	1	270	0.00	30.300 
06:55	43.1	43.1	43.1	55	28.0	0	1	270	0.00	30.300 
07:00	43.1	43.1	43.1	56	28.5	0	1	270	0.00	30.304 
07:05	43.1	43.1	43.1	56	28.5	0	1	270	0.00	30.304 
07:10	43.1	43.1	43.1	56	28.5	0	1	270	0.00	30.304 
07:15	43.1	43.1	43.1	57	28.9	0	1	270	0.00	30.310 
07:20	43.3	43.3	43.3	57	29.1	0	2	270	0.00	30.310 
07:25	43.6	43.6	43.6	57	29.4	0	1	270	0.00	30.310 
07:30	43.9	43.9	43.9	57	29.7	0	2	270	0.00	30.317 
07:35	44.2	44.2	44.2	57	29.9	0	1	270	0.00	30.317 
07:40	44.5	44.5	44.5	56	29.8	0	2	270	0.00	30.317 
07:45	44.8	44.8	44.8	55	29.6	1	2	292	0.00	30.321 
07:50	45.2	45.2	45.2	56	30.4	0	1	270	0.00	30.321 
07:55	45.7	45.7	45.7	55	30.5	0	1	270	0.00	30.321 
08:00	46.1	46.1	46.1	54	30.4	0	2	270	0.00	30.322 
08:05	46.5	46.5	46.5	52	29.8	0	3	270	0.00	30.322 
08:10	46.8	46.8	46.8	50	29.2	1	3	270	0.00	30.322 
08:15	47.1	47.1	47.1	51	29.9	0	2	270	0.00	30.325 
08:20	47.7	47.7	47.7	51	30.5	1	3	270	0.00	30.325 
08:25	47.9	47.9	47.9	49	29.7	1	3	315	0.00	30.325 
08:30	48.3	48.3	48.3	50	30.5	0	4	270	0.00	30.323 
08:35	48.6	48.6	48.6	48	29.8	1	4	270	0.00	30.323 
08:40	49.1	49.1	49.1	48	30.3	1	3	270	0.00	30.323 
08:45	49.2	49.2	49.2	47	29.8	1	4	292	0.00	30.331 
08:50	49.5	49.5	49.5	47	30.1	1	3	248	0.00	30.331 
08:55	49.9	49.9	49.9	43	28.3	1	3	248	0.00	30.331 
09:00	50.5	50.5	50.5	43	28.8	1	4	90	0.00	30.334 
09:05	50.8	50.8	50.8	40	27.4	1	3	0	0.00	30.334 
09:10	50.8	50.8	50.8	39	26.7	1	3	270	0.00	30.334 
09:15	51.0	51.0	51.0	38	26.3	2	6	270	0.00	30.335 
09:20	51.4	51.4	51.4	39	27.3	0	3	270	0.00	30.335 
09:25	51.7	51.7	51.7	38	26.9	1	5	315	0.00	30.335 
09:30	51.7	51.7	51.7	35	24.9	1	7	292	0.00	30.338 
09:35	52.0	52.0	52.0	34	24.5	2	7	292	0.00	30.338 
09:40	52.3	52.3	52.3	37	26.8	1	3	292	0.00	30.338 
09:45	52.5	52.5	52.5	34	25.0	1	4	270	0.00	30.341 
09:50	52.8	52.8	52.8	34	25.2	1	4	22	0.00	30.341 
09:55	53.3	53.3	53.3	34	25.7	1	5	90	0.00	30.341 
10:00	53.9	53.9	53.9	36	27.6	1	4	292	0.00	30.338 
10:05	53.9	53.9	53.9	30	23.2	1	4	0	0.00	30.338 
10:10	54.1	54.1	54.1	33	25.6	1	5	270	0.00	30.338 
10:15	54.1	54.1	54.1	29	22.6	1	9	45	0.00	30.342 
10:20	54.4	54.4	54.4	33	25.9	1	3	338	0.00	30.342 
10:25	54.7	54.7	54.7	29	23.1	1	6	315	0.00	30.342 
10:30	54.5	54.5	54.5	27	21.2	1	5	292	0.00	30.342 
10:35	53.9	53.9	53.9	30	23.2	3	7	270	0.00	30.342 
10:40	54.1	54.1	54.1	33	25.6	1	5	292	0.00	30.342 
10:45	54.8	54.8	54.8	32	25.5	1	5	292	0.00	30.345 
10:50	55.4	55.4	55.4	34	27.5	1	4	248	0.00	30.345 
10:55	55.9	55.9	55.9	32	26.5	1	3	270	0.00	30.345 
11:00	55.7	55.7	55.7	31	25.5	1	5	315	0.00	30.348 
11:05	55.7	55.7	55.7	31	25.5	2	6	292	0.00	30.348 
11:10	55.7	55.7	55.7	30	24.8	1	5	292	0.00	30.348 
11:15	56.0	56.0	56.0	29	24.2	1	5	338	0.00	30.343 
11:20	56.3	56.3	56.3	32	26.8	1	6	292	0.00	30.343 
11:25	56.2	56.2	56.2	31	26.0	1	5	292	0.00	30.343 
11:30	56.5	56.5	56.5	31	26.2	1	6	270	0.00	30.344 
11:35	56.5	56.5	56.5	26	22.0	1	4	315	0.00	30.344 
11:40	56.6	56.6	56.6	31	26.3	1	5	22	0.00	30.344 
11:45	57.0	57.0	57.0	30	25.9	1	7	45	0.00	30.342 
11:50	57.0	57.0	57.0	28	24.2	1	5	270	0.00	30.342 
11:55	57.0	57.0	57.0	34	28.9	1	3	292	0.00	30.342 
12:00	57.0	57.0	57.0	30	25.9	1	5	292	0.00	30.340 
12:05	57.0	57.0	57.0	31	26.7	2	5	315	0.00	30.340 
12:10	57.5	57.5	57.5	31	27.1	2	6	315	0.00	30.340 
12:15	57.2	57.2	57.2	28	24.4	2	7	270	0.00	30.340 
12:20	57.2	57.2	57.2	27	23.5	1	5	270	0.00	30.340 
12:25	57.5	57.5	57.5	30	26.3	1	4	270	0.00	30.340 
12:30	58.0	58.0	58.0	28	25.1	1	4	270	0.00	30.339 
12:35	58.0	58.0	58.0	28	25.1	2	10	270	0.00	30.339 
12:40	58.0	58.0	58.0	27	24.2	2	9	315	0.00	30.339 
12:45	58.1	58.1	58.1	28	25.2	1	3	270	0.00	30.335 
12:50	58.9	58.9	58.9	32	29.1	1	4	292	0.00	30.335 
12:55	58.6	58.6	58.6	28	25.6	2	6	292	0.00	30.335 
13:00	58.4	58.4	58.4	27	24.6	1	4	292	0.00	30.332 
13:05	58.3	58.3	58.3	27	24.5	1	5	338	0.00	30.332 
13:10	58.6	58.6	58.6	26	23.8	1	4	292	0.00	30.332 
13:15	58.7	58.7	58.7	27	24.8	1	3	292	0.00	30.330 
13:20	59.3	59.3	59.3	32	29.4	1	2	315	0.00	30.330 
13:25	59.8	59.8	59.8	31	29.1	1	3	45	0.00	30.330 
13:30	59.5	59.5	59.5	27	25.5	1	4	270	0.00	30.326 
13:35	58.9	58.9	58.9	22	20.1	1	3	338	0.00	30.326 
13:40	58.4	58.4	58.4	22	19.7	2	10	315	0.00	30.326 
13:45	58.7	58.7	58.7	25	23.0	1	3	315	0.00	30.321 
13:50	58.9	58.9	58.9	23	21.2	1	4	338	0.00	30.321 
13:55	58.9	58.9	58.9	23	21.2	1	4	0	0.00	30.321 
14:00	59.5	59.5	59.5	29	27.2	1	4	45	0.00	30.319 
14:05	59.2	59.2	59.2	25	23.4	1	6	0	0.00	30.319 
14:10	59.2	59.2	59.2	22	20.4	1	4	292	0.00	30.319 
14:15	59.5	59.5	59.5	28	26.4	1	4	292	0.00	30.318 
14:20	59.8	59.8	59.8	25	23.9	1	4	338	0.00	30.318 
14:25	59.9	59.9	59.9	29	27.6	1	3	270	0.00	30.318 
14:30	59.9	59.9	59.9	24	23.0	2	4	315	0.00	30.314 
14:35	59.9	59.9	59.9	25	24.0	1	3	315	0.00	30.314 
14:40	60.1	60.1	60.1	28	26.9	1	4	0	0.00	30.314 
14:45	60.4	60.4	60.4	28	27.1	1	3	22	0.00	30.310 
14:50	60.4	60.4	60.4	26	25.4	1	4	292	0.00	30.310 
14:55	60.7	60.7	60.7	31	29.9	1	4	270	0.00	30.310 
15:00	60.7	60.7	60.7	23	22.7	2	4	270	0.00	30.303 
15:05	60.7	60.7	60.7	27	26.5	2	6	248	0.00	30.303 
15:10	61.0	61.0	61.0	25	24.9	1	5	315	0.00	30.303 
15:15	60.9	60.9	60.9	25	24.8	3	9	270	0.00	30.304 
15:20	60.7	60.7	60.7	23	22.7	2	6	292	0.00	30.304 
15:25	60.7	60.7	60.7	24	23.7	1	2	315	0.00	30.304 
15:30	60.5	60.5	60.5	26	25.4	1	3	338	0.00	30.302 
15:35	60.9	60.9	60.9	27	26.7	1	5	292	0.00	30.302 
15:40	61.0	61.0	61.0	24	24.0	1	3	292	0.00	30.302 
15:45	61.0	61.0	61.0	25	24.9	2	6	292	0.00	30.301 
15:50	60.7	60.7	60.7	19	18.2	3	9	292	0.00	30.301 
15:55	60.9	60.9	60.9	19	18.4	2	6	292	0.00	30.301 
16:00	60.7	60.7	60.7	21	20.5	2	5	292	0.00	30.300 
16:05	60.4	60.4	60.4	20	19.2	2	6	292	0.00	30.300 
16:10	60.7	60.7	60.7	20	19.4	1	5	292	0.00	30.300 
16:15	60.5	60.5	60.5	23	22.5	2	4	315	0.00	30.298 
16:20	60.7	60.7	60.7	22	21.6	1	3	292	0.00	30.298 
16:25	60.7	60.7	60.7	22	21.6	1	3	338	0.00	30.298 
16:30	60.7	60.7	60.7	25	24.7	1	4	315	0.00	30.294 
16:35	60.7	60.7	60.7	23	22.7	1	4	135	0.00	30.294 
16:40	60.5	60.5	60.5	22	21.5	1	4	338	0.00	30.294 
16:45	60.9	60.9	60.9	23	22.9	3	5	270	0.00	30.290 
16:50	60.7	60.7	60.7	23	22.7	1	3	292	0.00	30.290 
16:55	60.5	60.5	60.5	22	21.5	1	5	270	0.00	30.290 
17:00	60.7	60.7	60.7	22	21.6	1	5	338	0.00	30.289 
17:05	60.5	60.5	60.5	21	20.4	2	4	292	0.00	30.289 
17:10	60.7	60.7	60.7	22	21.6	1	3	315	0.00	30.289 
17:15	60.9	60.9	60.9	24	23.9	1	4	248	0.00	30.288 
17:20	60.7	60.7	60.7	24	23.7	1	7	338	0.00	30.288 
17:25	61.2	61.2	61.2	23	23.1	0	3	338	0.00	30.288 
17:30	61.2	61.2	61.2	21	21.0	1	4	0	0.00	30.288 
17:35	61.0	61.0	61.0	21	20.8	1	3	0	0.00	30.288 
17:40	60.4	60.4	60.4	20	19.2	1	4	338	0.00	30.288 
17:45	60.4	60.4	60.4	22	21.4	1	4	270	0.00	30.290 
17:50	60.5	60.5	60.5	23	22.5	1	4	292	0.00	30.290 
17:55	60.7	60.7	60.7	22	21.6	1	4	315	0.00	30.290 
18:00	60.5	60.5	60.5	23	22.5	2	5	315	0.00	30.290 
18:05	60.5	60.5	60.5	21	20.4	1	4	315	0.00	30.290 
18:10	60.2	60.2	60.2	22	21.2	2	4	270	0.00	30.290 
18:15	59.6	59.6	59.6	24	22.8	2	6	315	0.00	30.291 
18:20	59.2	59.2	59.2	21	19.3	2	6	315	0.00	30.291 
18:25	59.0	59.0	59.0	21	19.1	2	4	292	0.00	30.291 
18:30	58.9	58.9	58.9	22	20.1	1	6	315	0.00	30.295 
18:35	58.9	58.9	58.9	23	21.2	1	4	315	0.00	30.295 
18:40	58.9	58.9	58.9	22	20.1	0	2	158	0.00	30.295 
18:45	58.7	58.7	58.7	24	22.0	1	4	292	0.00	30.291 
18:50	58.7	58.7	58.7	24	22.0	1	2	270	0.00	30.291 
18:55	58.6	58.6	58.6	25	22.9	1	5	292	0.00	30.291 
19:00	58.6	58.6	58.6	25	22.9	1	3	292	0.00	30.290 
19:05	58.3	58.3	58.3	26	23.6	1	3	315	0.00	30.290 
19:10	58.1	58.1	58.1	26	23.4	1	4	292	0.00	30.290 
19:15	58.0	58.0	58.0	27	24.2	1	3	315	0.00	30.288 
19:20	57.8	57.8	57.8	27	24.0	1	3	315	0.00	30.288 
19:25	57.6	57.6	57.6	29	25.6	0	2	338	0.00	30.288 
19:30	57.5	57.5	57.5	28	24.7	1	3	292	0.00	30.289 
19:35	57.3	57.3	57.3	27	23.6	1	3	292	0.00	30.289 
19:40	57.2	57.2	57.2	29	25.2	0	2	338	0.00	30.289 
19:45	56.9	56.9	56.9	28	24.1	1	6	338	0.00	30.298 
19:50	56.7	56.7	56.7	28	24.0	0	2	315	0.00	30.298 
19:55	56.5	56.5	56.5	27	22.9	1	3	292	0.00	30.298 
20:00	56.2	56.2	56.2	28	23.5	1	4	315	0.00	30.299 
20:05	56.0	56.0	56.0	30	25.0	0	2	315	0.00	30.299 
20:10	55.6	55.6	55.6	30	24.7	1	4	292	0.00	30.299 
20:15	55.3	55.3	55.3	29	23.6	1	4	292	0.00	30.301 
20:20	55.1	55.1	55.1	31	25.0	0	2	292	0.00	30.301 
20:25	54.8	54.8	54.8	30	24.0	1	3	315	0.00	30.301 
20:30	54.5	54.5	54.5	30	23.7	1	6	270	0.00	30.302 
20:35	54.2	54.2	54.2	32	25.0	1	3	270	0.00	30.302 
20:40	53.9	53.9	53.9	33	25.5	0	3	270	0.00	30.302 
20:45	53.5	53.5	53.5	33	25.1	0	3	292	0.00	30.305 
20:50	53.2	53.2	53.2	35	26.3	1	2	292	0.00	30.305 
20:55	52.9	52.9	52.9	34	25.3	0	1	292	0.00	30.305 
21:00	52.8	52.8	52.8	35	25.9	0	1	292	0.00	30.309 
21:05	52.5	52.5	52.5	35	25.6	0	1	292	0.00	30.309 
21:10	52.2	52.2	52.2	36	26.1	0	1	292	0.00	30.309 
21:15	51.9	51.9	51.9	36	25.8	0	1	292	0.00	30.311 
21:20	51.6	51.6	51.6	37	26.2	0	1	292	0.00	30.311 
21:25	51.3	51.3	51.3	39	27.2	0	0	---	0.00	30.311 
21:30	51.0	51.0	51.0	39	26.9	0	1	292	0.00	30.316 
21:35	50.7	50.7	50.7	39	26.7	0	1	292	0.00	30.316 
21:40	50.4	50.4	50.4	40	27.0	0	0	---	0.00	30.316 
21:45	50.1	50.1	50.1	41	27.3	0	0	---	0.00	30.319 
21:50	49.8	49.8	49.8	41	27.1	0	0	---	0.00	30.319 
21:55	49.6	49.6	49.6	41	26.9	0	0	---	0.00	30.319 
22:00	49.4	49.4	49.4	41	26.7	0	0	---	0.00	30.321 
22:05	49.2	49.2	49.2	42	27.1	0	0	---	0.00	30.321 
22:10	48.9	48.9	48.9	43	27.4	0	1	292	0.00	30.321 
22:15	48.6	48.6	48.6	43	27.1	0	0	---	0.00	30.325 
22:20	48.3	48.3	48.3	43	26.9	0	0	---	0.00	30.325 
22:25	48.0	48.0	48.0	45	27.7	0	0	---	0.00	30.325 
22:30	47.6	47.6	47.6	46	27.9	0	0	---	0.00	30.333 
22:35	47.3	47.3	47.3	46	27.6	0	0	---	0.00	30.333 
22:40	46.8	46.8	46.8	47	27.6	0	0	---	0.00	30.333 
22:45	46.4	46.4	46.4	47	27.3	0	0	---	0.00	30.336 
22:50	46.0	46.0	46.0	48	27.4	0	0	---	0.00	30.336 
22:55	45.7	45.7	45.7	50	28.1	0	0	---	0.00	30.336 
23:00	45.2	45.2	45.2	52	28.6	0	0	---	0.00	30.338 
23:05	44.8	44.8	44.8	52	28.3	0	0	---	0.00	30.338 
23:10	44.3	44.3	44.3	53	28.3	0	0	---	0.00	30.338 
23:15	44.1	44.1	44.1	54	28.5	0	0	---	0.00	30.338 
23:20	43.9	43.9	43.9	55	28.8	0	0	---	0.00	30.338 
23:25	43.6	43.6	43.6	57	29.4	0	0	---	0.00	30.338 
23:30	43.5	43.5	43.5	56	28.9	0	0	---	0.00	30.338 
23:35	43.3	43.3	43.3	57	29.1	0	0	---	0.00	30.338 
23:40	43.2	43.2	43.2	57	29.0	0	0	---	0.00	30.338 
23:45	43.2	43.2	43.2	57	29.0	0	0	---	0.00	30.341 
23:50	43.2	43.2	43.2	57	29.0	0	0	---	0.00	30.341 
23:55	43.1	43.1	43.1	58	29.3	0	0	---	0.00	30.341 

CoCoRaHS
IN-AL-39
A2 Web Hosting
Creative Commons License
GoDaddy
search engine by freefind advanced

loaded 2018-11-17 22:29:44 • last modified 2010-11-18 10:43:29
Privacy PolicyDisclaimer
• wx.awcolley.com is powered by PmWiki v.2002016 •
• all content (unless otherwise noted) © 2018 A W Colley